Lansing, West Virginia
Current Conditions -  °F | °C
As of 12:59 PM on Wednesday 28 Jan 2015 (Local Time) from KBKW Reporting Station
Scattered Clouds Scattered Clouds  
Wind Chill: 16°   Ceiling: Unl
Heat Index: 24°   Visibility: 10mi
Dew Point: 15°   Wind: 7mph
Humidity: 69%   Direction: 10°N
Pressure: 30.22"   Gusts: NA
Location:  38.07°N, 81.07°W
Report Text: KBKW 281759Z AUTO 01006KT 10SM SCT015 M04/M09 A3022 RMK AO2 T10441094
Loading
Personal Weather Stations






























Interactive Weather Map New forecast layout! Learn more

10-Day Weather Forecast

Advertisements
Track Severe Weather on mobile